sensor_id;sensor_type;location;lat;lon;timestamp;P1;durP1;ratioP1;P2;durP2;ratioP2
37895;SDS011;23733;53.254;10.430;2024-02-04T00:01:54;8.43;;;1.80;;
37895;SDS011;23733;53.254;10.430;2024-02-04T00:04:21;9.53;;;2.33;;
37895;SDS011;23733;53.254;10.430;2024-02-04T00:06:48;11.30;;;2.10;;
37895;SDS011;23733;53.254;10.430;2024-02-04T00:09:15;12.80;;;2.93;;
37895;SDS011;23733;53.254;10.430;2024-02-04T00:11:41;8.97;;;1.90;;
37895;SDS011;23733;53.254;10.430;2024-02-04T00:14:07;7.20;;;2.43;;
37895;SDS011;23733;53.254;10.430;2024-02-04T00:16:34;9.33;;;1.93;;
37895;SDS011;23733;53.254;10.430;2024-02-04T00:19:00;11.00;;;2.47;;
37895;SDS011;23733;53.254;10.430;2024-02-04T00:21:27;12.70;;;2.73;;
37895;SDS011;23733;53.254;10.430;2024-02-04T00:23:54;12.87;;;2.17;;
37895;SDS011;23733;53.254;10.430;2024-02-04T00:26:20;10.23;;;2.60;;
37895;SDS011;23733;53.254;10.430;2024-02-04T00:28:47;13.83;;;2.87;;
37895;SDS011;23733;53.254;10.430;2024-02-04T00:31:13;11.70;;;2.23;;
37895;SDS011;23733;53.254;10.430;2024-02-04T00:33:39;11.40;;;2.20;;
37895;SDS011;23733;53.254;10.430;2024-02-04T00:36:06;9.50;;;2.23;;
37895;SDS011;23733;53.254;10.430;2024-02-04T00:38:32;9.10;;;2.20;;
37895;SDS011;23733;53.254;10.430;2024-02-04T00:40:59;9.13;;;2.23;;
37895;SDS011;23733;53.254;10.430;2024-02-04T00:43:25;10.13;;;2.17;;
37895;SDS011;23733;53.254;10.430;2024-02-04T00:45:51;12.30;;;2.53;;
37895;SDS011;23733;53.254;10.430;2024-02-04T00:48:20;10.67;;;2.00;;
37895;SDS011;23733;53.254;10.430;2024-02-04T00:50:46;13.47;;;1.87;;
37895;SDS011;23733;53.254;10.430;2024-02-04T00:53:12;12.00;;;2.80;;
37895;SDS011;23733;53.254;10.430;2024-02-04T00:55:39;8.73;;;2.07;;
37895;SDS011;23733;53.254;10.430;2024-02-04T00:58:05;16.90;;;2.50;;
37895;SDS011;23733;53.254;10.430;2024-02-04T01:00:31;9.73;;;2.30;;
37895;SDS011;23733;53.254;10.430;2024-02-04T01:02:58;10.83;;;2.43;;
37895;SDS011;23733;53.254;10.430;2024-02-04T01:05:24;7.33;;;2.03;;
37895;SDS011;23733;53.254;10.430;2024-02-04T01:07:50;6.57;;;1.87;;
37895;SDS011;23733;53.254;10.430;2024-02-04T01:10:17;8.90;;;2.00;;
37895;SDS011;23733;53.254;10.430;2024-02-04T01:12:43;10.13;;;2.50;;
37895;SDS011;23733;53.254;10.430;2024-02-04T01:15:09;8.50;;;2.20;;
37895;SDS011;23733;53.254;10.430;2024-02-04T01:17:35;7.63;;;1.50;;
37895;SDS011;23733;53.254;10.430;2024-02-04T01:20:02;11.30;;;2.50;;
37895;SDS011;23733;53.254;10.430;2024-02-04T01:22:28;9.20;;;2.50;;
37895;SDS011;23733;53.254;10.430;2024-02-04T01:24:55;10.50;;;1.80;;
37895;SDS011;23733;53.254;10.430;2024-02-04T01:27:21;9.00;;;2.30;;
37895;SDS011;23733;53.254;10.430;2024-02-04T01:29:47;7.60;;;1.90;;
37895;SDS011;23733;53.254;10.430;2024-02-04T01:32:14;7.33;;;2.00;;
37895;SDS011;23733;53.254;10.430;2024-02-04T01:34:41;10.50;;;2.30;;
37895;SDS011;23733;53.254;10.430;2024-02-04T01:37:07;10.53;;;2.07;;
37895;SDS011;23733;53.254;10.430;2024-02-04T01:39:34;8.40;;;1.87;;
37895;SDS011;23733;53.254;10.430;2024-02-04T01:42:00;11.00;;;2.40;;
37895;SDS011;23733;53.254;10.430;2024-02-04T01:44:26;12.60;;;1.93;;
37895;SDS011;23733;53.254;10.430;2024-02-04T01:46:53;6.50;;;1.90;;
37895;SDS011;23733;53.254;10.430;2024-02-04T01:49:20;9.13;;;2.63;;
37895;SDS011;23733;53.254;10.430;2024-02-04T01:51:46;10.87;;;2.07;;
37895;SDS011;23733;53.254;10.430;2024-02-04T01:54:12;8.37;;;2.37;;
37895;SDS011;23733;53.254;10.430;2024-02-04T01:56:39;10.53;;;2.10;;
37895;SDS011;23733;53.254;10.430;2024-02-04T01:59:05;7.33;;;2.03;;
37895;SDS011;23733;53.254;10.430;2024-02-04T02:01:31;10.77;;;2.57;;
37895;SDS011;23733;53.254;10.430;2024-02-04T02:03:58;8.43;;;1.93;;
37895;SDS011;23733;53.254;10.430;2024-02-04T02:06:27;6.63;;;1.97;;
37895;SDS011;23733;53.254;10.430;2024-02-04T02:08:53;6.53;;;2.10;;
37895;SDS011;23733;53.254;10.430;2024-02-04T02:11:22;7.60;;;1.70;;
37895;SDS011;23733;53.254;10.430;2024-02-04T02:13:54;8.17;;;2.23;;
37895;SDS011;23733;53.254;10.430;2024-02-04T02:16:23;9.23;;;1.97;;
37895;SDS011;23733;53.254;10.430;2024-02-04T02:18:54;8.43;;;2.00;;
37895;SDS011;23733;53.254;10.430;2024-02-04T02:26:52;7.73;;;2.00;;
37895;SDS011;23733;53.254;10.430;2024-02-04T02:29:18;10.13;;;2.60;;
37895;SDS011;23733;53.254;10.430;2024-02-04T02:31:45;11.13;;;2.93;;
37895;SDS011;23733;53.254;10.430;2024-02-04T02:34:12;7.60;;;2.10;;
37895;SDS011;23733;53.254;10.430;2024-02-04T02:36:57;8.57;;;2.23;;
37895;SDS011;23733;53.254;10.430;2024-02-04T02:39:27;8.00;;;2.60;;
37895;SDS011;23733;53.254;10.430;2024-02-04T02:41:57;10.53;;;1.97;;
37895;SDS011;23733;53.254;10.430;2024-02-04T02:44:25;10.40;;;2.30;;
37895;SDS011;23733;53.254;10.430;2024-02-04T02:46:52;12.03;;;1.90;;
37895;SDS011;23733;53.254;10.430;2024-02-04T02:49:20;8.97;;;2.57;;
37895;SDS011;23733;53.254;10.430;2024-02-04T02:51:46;11.03;;;2.17;;
37895;SDS011;23733;53.254;10.430;2024-02-04T02:54:13;9.20;;;2.20;;
37895;SDS011;23733;53.254;10.430;2024-02-04T02:56:39;9.83;;;2.67;;
37895;SDS011;23733;53.254;10.430;2024-02-04T02:59:05;11.17;;;2.83;;
37895;SDS011;23733;53.254;10.430;2024-02-04T03:01:31;7.20;;;2.00;;
37895;SDS011;23733;53.254;10.430;2024-02-04T03:03:58;11.43;;;2.00;;
37895;SDS011;23733;53.254;10.430;2024-02-04T03:06:24;5.00;;;1.63;;
37895;SDS011;23733;53.254;10.430;2024-02-04T03:08:50;10.90;;;2.50;;
37895;SDS011;23733;53.254;10.430;2024-02-04T03:11:17;6.43;;;2.20;;
37895;SDS011;23733;53.254;10.430;2024-02-04T03:13:44;7.53;;;2.17;;
37895;SDS011;23733;53.254;10.430;2024-02-04T03:16:11;6.93;;;2.00;;
37895;SDS011;23733;53.254;10.430;2024-02-04T03:18:40;10.87;;;1.97;;
37895;SDS011;23733;53.254;10.430;2024-02-04T03:21:16;8.30;;;2.33;;
37895;SDS011;23733;53.254;10.430;2024-02-04T03:23:45;9.47;;;2.10;;
37895;SDS011;23733;53.254;10.430;2024-02-04T03:26:13;8.40;;;2.20;;
37895;SDS011;23733;53.254;10.430;2024-02-04T03:28:44;10.43;;;2.00;;
37895;SDS011;23733;53.254;10.430;2024-02-04T03:31:11;7.77;;;2.10;;
37895;SDS011;23733;53.254;10.430;2024-02-04T03:33:37;8.37;;;2.33;;
37895;SDS011;23733;53.254;10.430;2024-02-04T03:36:03;5.63;;;2.00;;
37895;SDS011;23733;53.254;10.430;2024-02-04T03:38:29;9.47;;;2.60;;
37895;SDS011;23733;53.254;10.430;2024-02-04T03:40:56;6.03;;;2.00;;
37895;SDS011;23733;53.254;10.430;2024-02-04T03:43:22;9.07;;;2.33;;
37895;SDS011;23733;53.254;10.430;2024-02-04T03:45:48;7.87;;;2.57;;
37895;SDS011;23733;53.254;10.430;2024-02-04T03:48:15;12.43;;;2.57;;
37895;SDS011;23733;53.254;10.430;2024-02-04T03:50:41;11.40;;;2.70;;
37895;SDS011;23733;53.254;10.430;2024-02-04T03:53:07;7.07;;;2.43;;
37895;SDS011;23733;53.254;10.430;2024-02-04T03:55:33;11.97;;;2.90;;
37895;SDS011;23733;53.254;10.430;2024-02-04T03:58:00;9.67;;;2.57;;
37895;SDS011;23733;53.254;10.430;2024-02-04T04:00:26;9.07;;;2.70;;
37895;SDS011;23733;53.254;10.430;2024-02-04T04:02:52;10.93;;;3.03;;
37895;SDS011;23733;53.254;10.430;2024-02-04T04:05:19;9.80;;;2.80;;
37895;SDS011;23733;53.254;10.430;2024-02-04T04:07:45;10.97;;;3.07;;
37895;SDS011;23733;53.254;10.430;2024-02-04T04:10:11;11.73;;;2.70;;
37895;SDS011;23733;53.254;10.430;2024-02-04T04:12:38;7.40;;;2.40;;
37895;SDS011;23733;53.254;10.430;2024-02-04T04:15:04;11.50;;;3.07;;
37895;SDS011;23733;53.254;10.430;2024-02-04T04:17:30;8.87;;;3.03;;
37895;SDS011;23733;53.254;10.430;2024-02-04T04:19:57;10.50;;;2.93;;
37895;SDS011;23733;53.254;10.430;2024-02-04T04:22:23;8.33;;;2.40;;
37895;SDS011;23733;53.254;10.430;2024-02-04T04:24:50;9.90;;;2.70;;
37895;SDS011;23733;53.254;10.430;2024-02-04T04:27:16;12.03;;;3.20;;
37895;SDS011;23733;53.254;10.430;2024-02-04T04:29:42;7.87;;;2.67;;
37895;SDS011;23733;53.254;10.430;2024-02-04T04:32:08;12.33;;;2.97;;
37895;SDS011;23733;53.254;10.430;2024-02-04T04:34:35;9.27;;;2.90;;
37895;SDS011;23733;53.254;10.430;2024-02-04T04:37:01;9.57;;;3.70;;
37895;SDS011;23733;53.254;10.430;2024-02-04T04:39:27;11.70;;;3.97;;
37895;SDS011;23733;53.254;10.430;2024-02-04T04:41:54;12.10;;;3.47;;
37895;SDS011;23733;53.254;10.430;2024-02-04T04:44:20;13.20;;;3.93;;
37895;SDS011;23733;53.254;10.430;2024-02-04T04:46:46;9.27;;;4.03;;
37895;SDS011;23733;53.254;10.430;2024-02-04T04:49:13;11.07;;;4.10;;
37895;SDS011;23733;53.254;10.430;2024-02-04T04:51:43;11.73;;;4.23;;
37895;SDS011;23733;53.254;10.430;2024-02-04T04:54:10;9.03;;;4.50;;
37895;SDS011;23733;53.254;10.430;2024-02-04T04:56:40;7.87;;;4.27;;
37895;SDS011;23733;53.254;10.430;2024-02-04T04:59:07;12.23;;;4.67;;
37895;SDS011;23733;53.254;10.430;2024-02-04T05:01:33;9.70;;;4.70;;
37895;SDS011;23733;53.254;10.430;2024-02-04T05:03:59;14.83;;;5.13;;
37895;SDS011;23733;53.254;10.430;2024-02-04T05:06:26;13.80;;;5.10;;
37895;SDS011;23733;53.254;10.430;2024-02-04T05:08:52;14.90;;;5.40;;
37895;SDS011;23733;53.254;10.430;2024-02-04T05:11:18;11.57;;;5.90;;
37895;SDS011;23733;53.254;10.430;2024-02-04T05:13:45;11.50;;;5.47;;
37895;SDS011;23733;53.254;10.430;2024-02-04T05:16:11;10.63;;;5.63;;
37895;SDS011;23733;53.254;10.430;2024-02-04T05:18:37;9.67;;;4.90;;
37895;SDS011;23733;53.254;10.430;2024-02-04T05:21:04;12.87;;;5.37;;
37895;SDS011;23733;53.254;10.430;2024-02-04T05:23:30;12.07;;;5.30;;
37895;SDS011;23733;53.254;10.430;2024-02-04T05:25:56;11.60;;;5.00;;
37895;SDS011;23733;53.254;10.430;2024-02-04T05:28:23;14.83;;;5.50;;
37895;SDS011;23733;53.254;10.430;2024-02-04T05:30:49;12.70;;;5.37;;
37895;SDS011;23733;53.254;10.430;2024-02-04T05:33:15;13.37;;;5.33;;
37895;SDS011;23733;53.254;10.430;2024-02-04T05:35:42;15.20;;;5.27;;
37895;SDS011;23733;53.254;10.430;2024-02-04T05:38:09;11.23;;;4.03;;
37895;SDS011;23733;53.254;10.430;2024-02-04T05:40:35;10.77;;;4.07;;
37895;SDS011;23733;53.254;10.430;2024-02-04T05:43:01;10.80;;;4.67;;
37895;SDS011;23733;53.254;10.430;2024-02-04T05:45:32;11.47;;;4.00;;
37895;SDS011;23733;53.254;10.430;2024-02-04T05:47:58;12.23;;;4.60;;
37895;SDS011;23733;53.254;10.430;2024-02-04T05:50:24;12.47;;;4.37;;
37895;SDS011;23733;53.254;10.430;2024-02-04T05:52:50;15.73;;;4.83;;
37895;SDS011;23733;53.254;10.430;2024-02-04T05:55:17;11.43;;;4.23;;
37895;SDS011;23733;53.254;10.430;2024-02-04T05:57:43;11.50;;;3.60;;
37895;SDS011;23733;53.254;10.430;2024-02-04T06:00:09;8.90;;;4.03;;
37895;SDS011;23733;53.254;10.430;2024-02-04T06:02:36;10.37;;;3.57;;
37895;SDS011;23733;53.254;10.430;2024-02-04T06:05:02;8.93;;;4.23;;
37895;SDS011;23733;53.254;10.430;2024-02-04T06:07:29;13.03;;;4.20;;
37895;SDS011;23733;53.254;10.430;2024-02-04T06:09:55;8.47;;;3.40;;
37895;SDS011;23733;53.254;10.430;2024-02-04T06:12:21;13.27;;;3.77;;
37895;SDS011;23733;53.254;10.430;2024-02-04T06:14:48;10.50;;;3.50;;
37895;SDS011;23733;53.254;10.430;2024-02-04T06:17:14;12.83;;;4.23;;
37895;SDS011;23733;53.254;10.430;2024-02-04T06:19:40;14.03;;;3.17;;
37895;SDS011;23733;53.254;10.430;2024-02-04T06:22:07;8.90;;;3.50;;
37895;SDS011;23733;53.254;10.430;2024-02-04T06:24:33;9.03;;;3.73;;
37895;SDS011;23733;53.254;10.430;2024-02-04T06:27:02;11.20;;;3.60;;
37895;SDS011;23733;53.254;10.430;2024-02-04T06:29:29;11.30;;;3.73;;
37895;SDS011;23733;53.254;10.430;2024-02-04T06:31:55;11.30;;;3.20;;
37895;SDS011;23733;53.254;10.430;2024-02-04T06:34:21;13.00;;;3.47;;
37895;SDS011;23733;53.254;10.430;2024-02-04T06:36:48;12.30;;;4.67;;
37895;SDS011;23733;53.254;10.430;2024-02-04T06:39:14;8.70;;;3.20;;
37895;SDS011;23733;53.254;10.430;2024-02-04T06:41:40;8.50;;;3.07;;
37895;SDS011;23733;53.254;10.430;2024-02-04T06:44:07;7.40;;;2.90;;
37895;SDS011;23733;53.254;10.430;2024-02-04T06:46:33;8.90;;;2.80;;
37895;SDS011;23733;53.254;10.430;2024-02-04T06:49:00;7.97;;;2.70;;
37895;SDS011;23733;53.254;10.430;2024-02-04T06:51:26;6.67;;;2.93;;
37895;SDS011;23733;53.254;10.430;2024-02-04T06:53:53;8.80;;;2.63;;
37895;SDS011;23733;53.254;10.430;2024-02-04T06:56:19;9.63;;;2.50;;
37895;SDS011;23733;53.254;10.430;2024-02-04T06:58:45;8.67;;;3.23;;
37895;SDS011;23733;53.254;10.430;2024-02-04T07:01:11;7.70;;;2.40;;
37895;SDS011;23733;53.254;10.430;2024-02-04T07:03:38;9.73;;;2.20;;
37895;SDS011;23733;53.254;10.430;2024-02-04T07:06:04;5.77;;;2.20;;
37895;SDS011;23733;53.254;10.430;2024-02-04T07:08:31;7.93;;;2.30;;
37895;SDS011;23733;53.254;10.430;2024-02-04T07:10:57;8.90;;;2.33;;
37895;SDS011;23733;53.254;10.430;2024-02-04T07:13:23;9.10;;;2.30;;
37895;SDS011;23733;53.254;10.430;2024-02-04T07:15:50;6.90;;;2.07;;
37895;SDS011;23733;53.254;10.430;2024-02-04T07:18:16;11.77;;;2.60;;
37895;SDS011;23733;53.254;10.430;2024-02-04T07:20:47;10.67;;;2.40;;
37895;SDS011;23733;53.254;10.430;2024-02-04T07:23:13;14.00;;;2.43;;
37895;SDS011;23733;53.254;10.430;2024-02-04T07:25:40;7.53;;;2.33;;
37895;SDS011;23733;53.254;10.430;2024-02-04T07:28:06;7.43;;;2.40;;
37895;SDS011;23733;53.254;10.430;2024-02-04T07:30:33;6.13;;;2.40;;
37895;SDS011;23733;53.254;10.430;2024-02-04T07:32:59;9.37;;;2.20;;
37895;SDS011;23733;53.254;10.430;2024-02-04T07:35:25;6.67;;;1.90;;
37895;SDS011;23733;53.254;10.430;2024-02-04T07:37:52;9.53;;;1.90;;
37895;SDS011;23733;53.254;10.430;2024-02-04T07:40:18;10.73;;;2.40;;
37895;SDS011;23733;53.254;10.430;2024-02-04T07:42:44;8.77;;;1.80;;
37895;SDS011;23733;53.254;10.430;2024-02-04T07:45:10;10.80;;;2.00;;
37895;SDS011;23733;53.254;10.430;2024-02-04T07:47:37;8.10;;;2.10;;
37895;SDS011;23733;53.254;10.430;2024-02-04T07:50:03;9.20;;;1.70;;
37895;SDS011;23733;53.254;10.430;2024-02-04T07:52:30;6.83;;;1.80;;
37895;SDS011;23733;53.254;10.430;2024-02-04T07:54:56;10.03;;;1.83;;
37895;SDS011;23733;53.254;10.430;2024-02-04T07:57:22;13.63;;;2.10;;
37895;SDS011;23733;53.254;10.430;2024-02-04T07:59:49;9.60;;;1.90;;
37895;SDS011;23733;53.254;10.430;2024-02-04T08:02:15;7.67;;;2.07;;
37895;SDS011;23733;53.254;10.430;2024-02-04T08:04:41;7.27;;;2.33;;
37895;SDS011;23733;53.254;10.430;2024-02-04T08:07:07;10.37;;;2.07;;
37895;SDS011;23733;53.254;10.430;2024-02-04T08:09:34;8.77;;;2.13;;
37895;SDS011;23733;53.254;10.430;2024-02-04T08:12:00;8.27;;;2.20;;
37895;SDS011;23733;53.254;10.430;2024-02-04T08:14:27;8.07;;;2.40;;
37895;SDS011;23733;53.254;10.430;2024-02-04T08:16:53;12.90;;;2.77;;
37895;SDS011;23733;53.254;10.430;2024-02-04T08:19:19;9.23;;;2.23;;
37895;SDS011;23733;53.254;10.430;2024-02-04T08:21:45;10.17;;;2.33;;
37895;SDS011;23733;53.254;10.430;2024-02-04T08:24:12;10.17;;;2.60;;
37895;SDS011;23733;53.254;10.430;2024-02-04T08:26:38;10.77;;;2.67;;
37895;SDS011;23733;53.254;10.430;2024-02-04T08:29:05;7.70;;;2.60;;
37895;SDS011;23733;53.254;10.430;2024-02-04T08:31:32;9.00;;;2.83;;
37895;SDS011;23733;53.254;10.430;2024-02-04T08:34:01;6.57;;;2.27;;
37895;SDS011;23733;53.254;10.430;2024-02-04T08:36:28;8.47;;;2.23;;
37895;SDS011;23733;53.254;10.430;2024-02-04T08:38:56;6.37;;;2.27;;
37895;SDS011;23733;53.254;10.430;2024-02-04T08:41:22;5.93;;;2.63;;
37895;SDS011;23733;53.254;10.430;2024-02-04T08:43:48;6.20;;;2.60;;
37895;SDS011;23733;53.254;10.430;2024-02-04T08:46:15;6.33;;;2.50;;
37895;SDS011;23733;53.254;10.430;2024-02-04T08:48:41;10.13;;;2.77;;
37895;SDS011;23733;53.254;10.430;2024-02-04T08:51:11;13.00;;;3.30;;
37895;SDS011;23733;53.254;10.430;2024-02-04T08:53:41;10.13;;;2.80;;
37895;SDS011;23733;53.254;10.430;2024-02-04T08:56:08;4.37;;;2.20;;
37895;SDS011;23733;53.254;10.430;2024-02-04T08:58:35;11.37;;;3.20;;
37895;SDS011;23733;53.254;10.430;2024-02-04T09:01:05;9.53;;;3.10;;
37895;SDS011;23733;53.254;10.430;2024-02-04T09:03:32;7.70;;;3.07;;
37895;SDS011;23733;53.254;10.430;2024-02-04T09:05:59;10.17;;;2.67;;
37895;SDS011;23733;53.254;10.430;2024-02-04T09:08:25;7.83;;;2.90;;
37895;SDS011;23733;53.254;10.430;2024-02-04T09:10:54;10.57;;;3.57;;
37895;SDS011;23733;53.254;10.430;2024-02-04T09:13:20;10.77;;;3.20;;
37895;SDS011;23733;53.254;10.430;2024-02-04T09:15:46;9.90;;;3.13;;
37895;SDS011;23733;53.254;10.430;2024-02-04T09:18:13;10.77;;;3.50;;
37895;SDS011;23733;53.254;10.430;2024-02-04T09:20:39;10.90;;;3.30;;
37895;SDS011;23733;53.254;10.430;2024-02-04T09:23:06;8.10;;;3.30;;
37895;SDS011;23733;53.254;10.430;2024-02-04T09:25:32;11.60;;;3.00;;
37895;SDS011;23733;53.254;10.430;2024-02-04T09:27:58;7.80;;;3.13;;
37895;SDS011;23733;53.254;10.430;2024-02-04T09:30:24;5.97;;;2.83;;
37895;SDS011;23733;53.254;10.430;2024-02-04T09:32:51;10.90;;;2.80;;
37895;SDS011;23733;53.254;10.430;2024-02-04T09:35:17;6.07;;;2.90;;
37895;SDS011;23733;53.254;10.430;2024-02-04T09:37:44;13.10;;;3.60;;
37895;SDS011;23733;53.254;10.430;2024-02-04T09:40:10;9.23;;;3.60;;
37895;SDS011;23733;53.254;10.430;2024-02-04T09:42:37;10.37;;;3.23;;
37895;SDS011;23733;53.254;10.430;2024-02-04T09:45:03;9.80;;;3.70;;
37895;SDS011;23733;53.254;10.430;2024-02-04T09:47:30;11.73;;;3.90;;
37895;SDS011;23733;53.254;10.430;2024-02-04T09:49:58;9.50;;;3.67;;
37895;SDS011;23733;53.254;10.430;2024-02-04T09:52:28;19.83;;;4.43;;
37895;SDS011;23733;53.254;10.430;2024-02-04T09:55:01;9.60;;;3.10;;
37895;SDS011;23733;53.254;10.430;2024-02-04T09:57:29;10.90;;;3.30;;
37895;SDS011;23733;53.254;10.430;2024-02-04T09:59:56;14.40;;;3.30;;
37895;SDS011;23733;53.254;10.430;2024-02-04T10:02:22;8.97;;;3.30;;
37895;SDS011;23733;53.254;10.430;2024-02-04T10:04:49;10.93;;;3.20;;
37895;SDS011;23733;53.254;10.430;2024-02-04T10:07:16;13.27;;;3.47;;
37895;SDS011;23733;53.254;10.430;2024-02-04T10:09:44;8.10;;;3.17;;
37895;SDS011;23733;53.254;10.430;2024-02-04T10:12:10;8.10;;;2.63;;
37895;SDS011;23733;53.254;10.430;2024-02-04T10:14:36;12.20;;;2.80;;
37895;SDS011;23733;53.254;10.430;2024-02-04T10:17:03;14.27;;;2.60;;
37895;SDS011;23733;53.254;10.430;2024-02-04T10:19:30;7.97;;;2.70;;
37895;SDS011;23733;53.254;10.430;2024-02-04T10:22:00;9.87;;;2.27;;
37895;SDS011;23733;53.254;10.430;2024-02-04T10:24:26;7.97;;;2.50;;
37895;SDS011;23733;53.254;10.430;2024-02-04T10:26:54;13.47;;;2.90;;
37895;SDS011;23733;53.254;10.430;2024-02-04T10:29:20;7.17;;;1.90;;
37895;SDS011;23733;53.254;10.430;2024-02-04T10:31:46;13.57;;;2.80;;
37895;SDS011;23733;53.254;10.430;2024-02-04T10:34:13;10.90;;;2.60;;
37895;SDS011;23733;53.254;10.430;2024-02-04T10:36:39;7.50;;;2.33;;
37895;SDS011;23733;53.254;10.430;2024-02-04T10:39:06;13.87;;;2.30;;
37895;SDS011;23733;53.254;10.430;2024-02-04T10:41:32;13.53;;;2.87;;
37895;SDS011;23733;53.254;10.430;2024-02-04T10:44:01;8.70;;;2.40;;
37895;SDS011;23733;53.254;10.430;2024-02-04T10:46:29;8.27;;;2.40;;
37895;SDS011;23733;53.254;10.430;2024-02-04T10:49:00;10.77;;;2.23;;
37895;SDS011;23733;53.254;10.430;2024-02-04T10:51:27;10.43;;;2.37;;
37895;SDS011;23733;53.254;10.430;2024-02-04T10:53:56;8.87;;;2.10;;
37895;SDS011;23733;53.254;10.430;2024-02-04T10:59:00;11.70;;;1.87;;
37895;SDS011;23733;53.254;10.430;2024-02-04T11:01:28;13.37;;;2.73;;
37895;SDS011;23733;53.254;10.430;2024-02-04T11:03:54;11.70;;;2.73;;
37895;SDS011;23733;53.254;10.430;2024-02-04T11:06:21;11.10;;;2.67;;
37895;SDS011;23733;53.254;10.430;2024-02-04T11:08:48;12.77;;;2.87;;
37895;SDS011;23733;53.254;10.430;2024-02-04T11:11:14;12.17;;;2.23;;
37895;SDS011;23733;53.254;10.430;2024-02-04T11:13:42;12.40;;;2.87;;
37895;SDS011;23733;53.254;10.430;2024-02-04T11:16:12;9.00;;;2.40;;
37895;SDS011;23733;53.254;10.430;2024-02-04T11:18:48;10.77;;;2.50;;
37895;SDS011;23733;53.254;10.430;2024-02-04T11:21:32;11.27;;;2.37;;
37895;SDS011;23733;53.254;10.430;2024-02-04T11:26:29;9.40;;;2.10;;
37895;SDS011;23733;53.254;10.430;2024-02-04T11:28:56;13.33;;;2.43;;
37895;SDS011;23733;53.254;10.430;2024-02-04T11:31:22;12.70;;;2.73;;
37895;SDS011;23733;53.254;10.430;2024-02-04T11:33:52;5.67;;;2.03;;
37895;SDS011;23733;53.254;10.430;2024-02-04T11:36:18;12.63;;;2.40;;
37895;SDS011;23733;53.254;10.430;2024-02-04T11:38:47;11.07;;;2.60;;
37895;SDS011;23733;53.254;10.430;2024-02-04T11:41:21;7.90;;;2.20;;
37895;SDS011;23733;53.254;10.430;2024-02-04T11:43:51;9.57;;;3.00;;
37895;SDS011;23733;53.254;10.430;2024-02-04T11:46:19;9.20;;;2.20;;
37895;SDS011;23733;53.254;10.430;2024-02-04T11:48:51;11.00;;;2.60;;
37895;SDS011;23733;53.254;10.430;2024-02-04T11:51:21;10.83;;;2.27;;
37895;SDS011;23733;53.254;10.430;2024-02-04T11:53:48;8.70;;;2.20;;
37895;SDS011;23733;53.254;10.430;2024-02-04T11:56:15;11.10;;;2.57;;
37895;SDS011;23733;53.254;10.430;2024-02-04T11:58:41;9.20;;;2.60;;
37895;SDS011;23733;53.254;10.430;2024-02-04T12:01:09;18.90;;;3.67;;
37895;SDS011;23733;53.254;10.430;2024-02-04T12:03:36;11.53;;;2.43;;
37895;SDS011;23733;53.254;10.430;2024-02-04T12:06:03;8.80;;;2.17;;
37895;SDS011;23733;53.254;10.430;2024-02-04T12:08:30;12.07;;;2.43;;
37895;SDS011;23733;53.254;10.430;2024-02-04T12:10:57;9.07;;;2.47;;
37895;SDS011;23733;53.254;10.430;2024-02-04T12:13:24;8.33;;;2.30;;
37895;SDS011;23733;53.254;10.430;2024-02-04T12:15:50;7.97;;;2.50;;
37895;SDS011;23733;53.254;10.430;2024-02-04T12:18:16;12.03;;;2.27;;
37895;SDS011;23733;53.254;10.430;2024-02-04T12:20:45;6.80;;;2.20;;
37895;SDS011;23733;53.254;10.430;2024-02-04T12:23:12;10.20;;;2.43;;
37895;SDS011;23733;53.254;10.430;2024-02-04T12:25:39;10.10;;;2.53;;
37895;SDS011;23733;53.254;10.430;2024-02-04T12:28:08;10.43;;;1.97;;
37895;SDS011;23733;53.254;10.430;2024-02-04T12:30:34;12.30;;;2.13;;
37895;SDS011;23733;53.254;10.430;2024-02-04T12:33:01;9.40;;;1.97;;
37895;SDS011;23733;53.254;10.430;2024-02-04T12:35:29;12.43;;;2.60;;
37895;SDS011;23733;53.254;10.430;2024-02-04T12:37:56;7.67;;;2.00;;
37895;SDS011;23733;53.254;10.430;2024-02-04T12:40:23;12.20;;;2.47;;
37895;SDS011;23733;53.254;10.430;2024-02-04T12:45:19;10.80;;;2.97;;
37895;SDS011;23733;53.254;10.430;2024-02-04T12:47:48;13.50;;;2.77;;
37895;SDS011;23733;53.254;10.430;2024-02-04T12:50:15;8.30;;;1.80;;
37895;SDS011;23733;53.254;10.430;2024-02-04T12:52:46;8.90;;;2.13;;
37895;SDS011;23733;53.254;10.430;2024-02-04T12:55:23;5.83;;;1.80;;
37895;SDS011;23733;53.254;10.430;2024-02-04T12:57:49;11.03;;;2.70;;
37895;SDS011;23733;53.254;10.430;2024-02-04T13:00:19;10.40;;;2.57;;
37895;SDS011;23733;53.254;10.430;2024-02-04T13:02:48;7.87;;;2.20;;
37895;SDS011;23733;53.254;10.430;2024-02-04T13:05:22;8.80;;;2.10;;
37895;SDS011;23733;53.254;10.430;2024-02-04T13:07:55;7.57;;;1.77;;
37895;SDS011;23733;53.254;10.430;2024-02-04T13:10:22;13.77;;;2.33;;
37895;SDS011;23733;53.254;10.430;2024-02-04T13:13:02;9.43;;;2.30;;
37895;SDS011;23733;53.254;10.430;2024-02-04T13:15:31;13.60;;;2.53;;
37895;SDS011;23733;53.254;10.430;2024-02-04T13:17:57;10.37;;;2.20;;
37895;SDS011;23733;53.254;10.430;2024-02-04T13:20:25;7.67;;;1.90;;
37895;SDS011;23733;53.254;10.430;2024-02-04T13:22:51;8.63;;;2.30;;
37895;SDS011;23733;53.254;10.430;2024-02-04T13:25:19;10.13;;;2.27;;
37895;SDS011;23733;53.254;10.430;2024-02-04T13:27:47;7.23;;;2.47;;
37895;SDS011;23733;53.254;10.430;2024-02-04T13:30:14;8.67;;;2.93;;
37895;SDS011;23733;53.254;10.430;2024-02-04T13:32:41;9.97;;;2.03;;
37895;SDS011;23733;53.254;10.430;2024-02-04T13:35:07;7.13;;;2.00;;
37895;SDS011;23733;53.254;10.430;2024-02-04T13:37:35;5.50;;;1.93;;
37895;SDS011;23733;53.254;10.430;2024-02-04T13:40:03;10.73;;;2.30;;
37895;SDS011;23733;53.254;10.430;2024-02-04T13:42:34;7.93;;;1.83;;
37895;SDS011;23733;53.254;10.430;2024-02-04T13:45:00;6.53;;;2.13;;
37895;SDS011;23733;53.254;10.430;2024-02-04T13:47:30;8.80;;;2.03;;
37895;SDS011;23733;53.254;10.430;2024-02-04T13:49:56;7.50;;;1.73;;
37895;SDS011;23733;53.254;10.430;2024-02-04T13:52:23;10.03;;;2.37;;
37895;SDS011;23733;53.254;10.430;2024-02-04T13:54:49;9.43;;;1.93;;
37895;SDS011;23733;53.254;10.430;2024-02-04T13:57:15;8.73;;;1.93;;
37895;SDS011;23733;53.254;10.430;2024-02-04T13:59:42;6.07;;;2.07;;
37895;SDS011;23733;53.254;10.430;2024-02-04T14:02:08;8.00;;;2.37;;
37895;SDS011;23733;53.254;10.430;2024-02-04T14:04:35;18.03;;;3.50;;
37895;SDS011;23733;53.254;10.430;2024-02-04T14:07:01;13.50;;;2.70;;
37895;SDS011;23733;53.254;10.430;2024-02-04T14:09:28;6.10;;;1.70;;
37895;SDS011;23733;53.254;10.430;2024-02-04T14:11:54;8.17;;;2.00;;
37895;SDS011;23733;53.254;10.430;2024-02-04T14:14:22;9.67;;;2.20;;
37895;SDS011;23733;53.254;10.430;2024-02-04T14:16:48;10.93;;;1.93;;
37895;SDS011;23733;53.254;10.430;2024-02-04T14:19:14;6.63;;;2.00;;
37895;SDS011;23733;53.254;10.430;2024-02-04T14:21:41;9.47;;;2.67;;
37895;SDS011;23733;53.254;10.430;2024-02-04T14:24:07;6.60;;;1.63;;
37895;SDS011;23733;53.254;10.430;2024-02-04T14:26:34;6.83;;;2.07;;
37895;SDS011;23733;53.254;10.430;2024-02-04T14:29:00;9.70;;;2.20;;
37895;SDS011;23733;53.254;10.430;2024-02-04T14:31:27;6.57;;;1.90;;
37895;SDS011;23733;53.254;10.430;2024-02-04T14:33:54;7.83;;;2.20;;
37895;SDS011;23733;53.254;10.430;2024-02-04T14:36:21;10.43;;;2.23;;
37895;SDS011;23733;53.254;10.430;2024-02-04T14:38:47;9.83;;;1.77;;
37895;SDS011;23733;53.254;10.430;2024-02-04T14:41:13;9.10;;;1.87;;